Time;durP1;ratioP1;P1;durP2;ratioP2;P2;SDS_P1;SDS_P2;PMS_P1;PMS_P2;Temp;Humidity;BMP_temperature;BMP_pressure;BME280_temperature;BME280_humidity;BME280_pressure;Samples;Min_cycle;Max_cycle;Signal;HPM_P1;HPM_P2
2021/04/24 00:00:24;;;;;;;7.60;4.80;;;;;;;;;;4999152;28;20033;-93
2021/04/24 00:02:50;;;;;;;6.38;4.28;;;;;;;;;;5015420;28;20034;-92
2021/04/24 00:05:18;;;;;;;9.57;4.78;;;;;;;;;;4999030;28;20477;-92
2021/04/24 00:07:43;;;;;;;5.57;4.00;;;;;;;;;;5014414;28;20044;-93
2021/04/24 00:10:09;;;;;;;8.82;4.88;;;;;;;;;;5015022;28;20148;-92
2021/04/24 00:12:35;;;;;;;11.88;5.38;;;;;;;;;;5018156;28;20033;-92
2021/04/24 00:15:01;;;;;;;10.07;4.70;;;;;;;;;;5034873;28;20041;-92
2021/04/24 00:17:26;;;;;;;12.02;5.65;;;;;;;;;;5035111;28;20037;-92
2021/04/24 00:19:51;;;;;;;15.20;6.18;;;;;;;;;;5034798;28;20506;-94
2021/04/24 00:22:17;;;;;;;14.85;4.68;;;;;;;;;;5034672;28;20473;-92
2021/04/24 00:24:42;;;;;;;9.77;5.10;;;;;;;;;;5034489;28;20396;-92
2021/04/24 00:27:07;;;;;;;8.73;4.90;;;;;;;;;;5033804;28;20124;-92
2021/04/24 00:29:34;;;;;;;8.18;4.75;;;;;;;;;;5051202;28;20063;-92
2021/04/24 00:32:00;;;;;;;7.85;4.55;;;;;;;;;;5034620;28;20033;-92
2021/04/24 00:34:25;;;;;;;8.35;4.93;;;;;;;;;;5018028;28;20043;-92
2021/04/24 00:36:50;;;;;;;9.73;4.47;;;;;;;;;;5051123;28;20103;-92
2021/04/24 00:39:15;;;;;;;10.38;5.35;;;;;;;;;;5033984;28;20034;-91
2021/04/24 00:41:41;;;;;;;13.07;5.18;;;;;;;;;;5034256;28;20021;-92
2021/04/24 00:44:06;;;;;;;10.27;5.65;;;;;;;;;;5034430;28;20112;-92
2021/04/24 00:46:32;;;;;;;10.15;5.15;;;;;;;;;;5034479;28;20084;-92
2021/04/24 00:48:57;;;;;;;14.73;4.88;;;;;;;;;;5034375;28;20069;-92
2021/04/24 00:51:23;;;;;;;12.02;5.38;;;;;;;;;;5034243;28;20042;-92
2021/04/24 00:53:48;;;;;;;9.10;5.32;;;;;;;;;;5034261;28;20048;-92
2021/04/24 00:56:13;;;;;;;9.82;4.93;;;;;;;;;;5017470;28;20042;-92
2021/04/24 00:58:39;;;;;;;10.57;5.38;;;;;;;;;;5034251;28;20128;-92
2021/04/24 01:01:04;;;;;;;7.35;4.45;;;;;;;;;;5050791;28;20041;-92
2021/04/24 01:03:30;;;;;;;7.45;4.35;;;;;;;;;;5034197;28;20030;-92
2021/04/24 01:05:56;;;;;;;8.98;4.93;;;;;;;;;;5034074;28;20552;-92
2021/04/24 01:08:21;;;;;;;7.85;4.20;;;;;;;;;;5034009;28;20036;-92
2021/04/24 01:10:46;;;;;;;9.35;4.30;;;;;;;;;;5015217;28;20496;-91
2021/04/24 01:13:13;;;;;;;9.90;4.30;;;;;;;;;;4997336;28;20528;-91
2021/04/24 01:15:39;;;;;;;6.85;4.55;;;;;;;;;;5013987;28;20440;-91
2021/04/24 01:18:06;;;;;;;9.30;5.13;;;;;;;;;;5030104;28;20038;-92
2021/04/24 01:20:35;;;;;;;11.00;5.05;;;;;;;;;;4998270;28;20072;-92
2021/04/24 01:23:01;;;;;;;12.35;5.88;;;;;;;;;;5030390;28;20034;-92
2021/04/24 01:25:26;;;;;;;12.40;5.72;;;;;;;;;;5030085;28;20107;-91
2021/04/24 01:27:54;;;;;;;12.27;5.70;;;;;;;;;;5013645;28;20046;-92
2021/04/24 01:30:24;;;;;;;11.60;5.50;;;;;;;;;;5013587;28;20026;-91
2021/04/24 01:32:49;;;;;;;12.30;5.93;;;;;;;;;;4997190;28;20038;-91
2021/04/24 01:35:21;;;;;;;11.00;5.35;;;;;;;;;;5013686;28;20045;-92
2021/04/24 01:37:46;;;;;;;12.07;5.28;;;;;;;;;;5029706;28;20038;-92
2021/04/24 01:40:14;;;;;;;10.23;5.80;;;;;;;;;;5013447;28;20034;-91
2021/04/24 01:42:40;;;;;;;15.27;4.72;;;;;;;;;;5013342;28;20038;-92
2021/04/24 01:45:08;;;;;;;11.25;5.25;;;;;;;;;;4997242;28;20382;-92
2021/04/24 01:47:38;;;;;;;9.52;4.53;;;;;;;;;;4996789;28;20034;-92
2021/04/24 01:50:17;;;;;;;10.95;4.30;;;;;;;;;;4996842;28;20066;-91
2021/04/24 01:52:45;;;;;;;7.15;4.40;;;;;;;;;;5012531;28;20038;-91
2021/04/24 01:55:16;;;;;;;7.63;4.40;;;;;;;;;;5029915;28;20034;-91
2021/04/24 01:57:44;;;;;;;6.13;4.13;;;;;;;;;;4996774;28;20080;-91
2021/04/24 02:00:15;;;;;;;9.07;4.65;;;;;;;;;;4996764;28;20095;-92
2021/04/24 02:02:40;;;;;;;17.33;5.72;;;;;;;;;;5013344;28;20034;-91
2021/04/24 02:05:15;;;;;;;12.32;5.47;;;;;;;;;;5013085;28;20044;-91
2021/04/24 02:07:41;;;;;;;13.60;5.07;;;;;;;;;;5013815;28;20129;-92
2021/04/24 02:10:09;;;;;;;10.15;5.35;;;;;;;;;;4996579;28;20480;-91
2021/04/24 02:12:35;;;;;;;10.30;4.32;;;;;;;;;;5012983;28;20041;-92
2021/04/24 02:15:01;;;;;;;8.50;4.78;;;;;;;;;;5029451;28;20042;-91
2021/04/24 02:17:27;;;;;;;10.32;5.13;;;;;;;;;;4996387;28;20493;-91
2021/04/24 02:19:53;;;;;;;9.75;5.40;;;;;;;;;;5029110;28;20053;-92
2021/04/24 02:22:20;;;;;;;10.70;5.03;;;;;;;;;;5029217;28;20045;-92
2021/04/24 02:24:54;;;;;;;7.65;4.28;;;;;;;;;;5012264;28;20044;-91
2021/04/24 02:27:20;;;;;;;10.55;4.72;;;;;;;;;;5012734;28;20042;-92
2021/04/24 02:29:46;;;;;;;10.63;4.88;;;;;;;;;;5012825;28;20044;-92
2021/04/24 02:32:13;;;;;;;7.53;4.13;;;;;;;;;;5028587;28;20033;-92
2021/04/24 02:34:41;;;;;;;9.07;4.45;;;;;;;;;;4996022;28;20041;-91
2021/04/24 02:37:08;;;;;;;15.02;5.00;;;;;;;;;;4995996;28;20061;-92
2021/04/24 02:39:37;;;;;;;9.32;4.55;;;;;;;;;;5028800;28;20445;-91
2021/04/24 02:42:04;;;;;;;12.15;5.90;;;;;;;;;;5028746;28;20504;-91
2021/04/24 02:44:30;;;;;;;14.45;5.75;;;;;;;;;;5032218;28;20112;-92
2021/04/24 02:46:57;;;;;;;10.18;5.13;;;;;;;;;;5032024;28;20057;-92
2021/04/24 02:49:23;;;;;;;11.63;4.90;;;;;;;;;;5015838;28;20037;-91
2021/04/24 02:51:48;;;;;;;12.27;4.93;;;;;;;;;;5048762;28;20037;-92
2021/04/24 02:54:13;;;;;;;12.65;4.57;;;;;;;;;;5031942;28;20069;-90
2021/04/24 02:56:39;;;;;;;11.05;4.60;;;;;;;;;;5032042;28;20040;-91
2021/04/24 02:59:04;;;;;;;13.65;4.75;;;;;;;;;;5015435;28;20045;-91
2021/04/24 03:01:30;;;;;;;9.75;5.00;;;;;;;;;;5031929;28;20111;-91
2021/04/24 03:03:55;;;;;;;13.15;4.25;;;;;;;;;;5033022;28;20168;-92
2021/04/24 03:06:20;;;;;;;9.23;4.95;;;;;;;;;;5031701;28;20515;-91
2021/04/24 03:08:46;;;;;;;8.75;4.80;;;;;;;;;;5031277;28;20033;-90
2021/04/24 03:11:11;;;;;;;15.75;4.85;;;;;;;;;;5030671;28;20373;-91
2021/04/24 03:13:36;;;;;;;10.52;5.03;;;;;;;;;;5029892;28;20076;-91
2021/04/24 03:16:02;;;;;;;9.65;5.28;;;;;;;;;;5029679;28;20033;-91
2021/04/24 03:18:27;;;;;;;10.82;4.50;;;;;;;;;;5030868;28;20045;-92
2021/04/24 03:20:52;;;;;;;11.15;4.57;;;;;;;;;;5032483;28;20033;-92
2021/04/24 03:23:18;;;;;;;17.33;4.68;;;;;;;;;;5031894;28;20125;-93
2021/04/24 03:25:43;;;;;;;12.80;4.80;;;;;;;;;;5031841;28;20053;-91
2021/04/24 03:28:08;;;;;;;8.23;4.10;;;;;;;;;;5031571;28;20037;-92
2021/04/24 03:30:34;;;;;;;10.18;4.80;;;;;;;;;;5031792;28;20037;-92
2021/04/24 03:32:59;;;;;;;10.15;4.93;;;;;;;;;;5031930;28;20040;-91
2021/04/24 03:35:24;;;;;;;9.13;4.95;;;;;;;;;;5015611;28;20499;-91
2021/04/24 03:37:50;;;;;;;11.25;5.18;;;;;;;;;;5031740;28;20037;-92
2021/04/24 03:40:15;;;;;;;14.15;5.13;;;;;;;;;;5013993;28;20099;-91
2021/04/24 03:42:40;;;;;;;11.30;4.90;;;;;;;;;;5033461;28;20061;-91
2021/04/24 03:45:17;;;;;;;10.80;5.72;;;;;;;;;;5018841;28;20126;-92
2021/04/24 03:47:44;;;;;;;7.50;4.40;;;;;;;;;;5035108;28;20037;-91
2021/04/24 03:50:10;;;;;;;10.32;5.05;;;;;;;;;;5018989;28;20072;-91
2021/04/24 03:52:36;;;;;;;10.85;5.30;;;;;;;;;;5017954;28;20362;-91
2021/04/24 03:55:01;;;;;;;11.57;4.78;;;;;;;;;;5034676;28;20174;-91
2021/04/24 03:57:26;;;;;;;9.07;4.32;;;;;;;;;;5034394;28;20064;-91
2021/04/24 03:59:51;;;;;;;12.57;4.53;;;;;;;;;;5034345;28;20053;-91
2021/04/24 04:02:17;;;;;;;9.80;4.93;;;;;;;;;;5034873;28;20038;-92
2021/04/24 04:04:42;;;;;;;15.65;5.53;;;;;;;;;;5018402;28;20040;-91
2021/04/24 04:07:07;;;;;;;9.23;4.80;;;;;;;;;;5035001;28;20388;-91
2021/04/24 04:09:33;;;;;;;9.98;4.90;;;;;;;;;;5030937;28;20081;-92
2021/04/24 04:11:58;;;;;;;12.07;5.35;;;;;;;;;;5014898;28;20117;-92
2021/04/24 04:14:23;;;;;;;10.73;5.55;;;;;;;;;;5031969;28;20056;-91
2021/04/24 04:16:48;;;;;;;10.88;5.10;;;;;;;;;;5031612;28;20042;-91
2021/04/24 04:19:14;;;;;;;18.05;5.22;;;;;;;;;;5014756;28;20044;-92
2021/04/24 04:21:39;;;;;;;18.15;5.35;;;;;;;;;;5014911;28;20038;-91
2021/04/24 04:24:05;;;;;;;9.32;4.70;;;;;;;;;;5014024;28;20045;-92
2021/04/24 04:26:30;;;;;;;14.20;4.47;;;;;;;;;;5013964;28;20042;-91
2021/04/24 04:28:56;;;;;;;18.92;4.70;;;;;;;;;;5014294;28;20038;-91
2021/04/24 04:31:21;;;;;;;13.90;5.53;;;;;;;;;;5014622;28;20045;-92
2021/04/24 04:33:47;;;;;;;18.85;6.40;;;;;;;;;;5014833;28;20371;-91
2021/04/24 04:36:12;;;;;;;26.50;5.72;;;;;;;;;;5031372;28;20502;-91
2021/04/24 04:38:37;;;;;;;26.13;7.22;;;;;;;;;;5015364;28;20501;-92
2021/04/24 04:41:04;;;;;;;17.08;5.25;;;;;;;;;;5017390;28;20041;-91
2021/04/24 04:43:29;;;;;;;21.98;5.60;;;;;;;;;;5050276;28;20049;-91
2021/04/24 04:45:54;;;;;;;14.20;5.18;;;;;;;;;;5034326;28;20034;-91
2021/04/24 04:48:20;;;;;;;18.73;8.13;;;;;;;;;;5034074;28;20040;-92
2021/04/24 04:50:45;;;;;;;13.57;5.72;;;;;;;;;;5034533;28;20099;-92
2021/04/24 04:53:11;;;;;;;26.55;5.30;;;;;;;;;;5050593;28;20127;-92
2021/04/24 04:55:37;;;;;;;21.83;5.95;;;;;;;;;;5033678;28;20021;-91
2021/04/24 04:58:03;;;;;;;18.35;4.80;;;;;;;;;;5033927;28;20444;-92
2021/04/24 05:00:28;;;;;;;18.50;5.38;;;;;;;;;;5035062;28;20037;-92
2021/04/24 05:02:54;;;;;;;33.20;5.63;;;;;;;;;;5034053;28;20475;-92
2021/04/24 05:05:20;;;;;;;21.35;4.93;;;;;;;;;;5016993;28;20091;-92
2021/04/24 05:07:48;;;;;;;23.50;4.93;;;;;;;;;;5033768;28;20041;-92
2021/04/24 05:10:15;;;;;;;22.73;4.75;;;;;;;;;;5033794;28;20037;-91
2021/04/24 05:12:41;;;;;;;29.98;5.60;;;;;;;;;;5033725;28;20405;-92
2021/04/24 05:15:07;;;;;;;17.02;5.63;;;;;;;;;;5033303;28;20046;-92
2021/04/24 05:17:32;;;;;;;16.45;6.22;;;;;;;;;;5034090;28;20037;-95
2021/04/24 05:19:57;;;;;;;11.77;6.32;;;;;;;;;;5050731;28;20057;-93
2021/04/24 05:22:22;;;;;;;12.02;6.00;;;;;;;;;;5034155;28;20044;-93
2021/04/24 05:24:48;;;;;;;14.63;6.60;;;;;;;;;;5016742;28;20068;-92
2021/04/24 05:27:15;;;;;;;11.55;6.22;;;;;;;;;;5033766;28;20055;-92
2021/04/24 05:29:41;;;;;;;15.55;7.03;;;;;;;;;;5016910;28;20041;-93
2021/04/24 05:32:06;;;;;;;17.63;6.78;;;;;;;;;;5033691;28;20037;-93
2021/04/24 05:34:32;;;;;;;20.92;6.65;;;;;;;;;;5033721;28;20458;-93
2021/04/24 05:36:58;;;;;;;24.25;6.30;;;;;;;;;;5034779;28;20043;-93
2021/04/24 05:39:23;;;;;;;35.22;7.25;;;;;;;;;;5029689;28;20034;-93
2021/04/24 05:41:48;;;;;;;14.80;5.63;;;;;;;;;;5030285;28;20167;-92
2021/04/24 05:44:14;;;;;;;23.23;7.32;;;;;;;;;;5013241;28;20458;-91
2021/04/24 05:46:39;;;;;;;19.60;6.13;;;;;;;;;;5013730;28;20519;-93
2021/04/24 05:49:04;;;;;;;16.02;6.63;;;;;;;;;;5013780;28;20066;-94
2021/04/24 05:51:30;;;;;;;11.90;5.13;;;;;;;;;;5013746;28;20034;-93
2021/04/24 05:53:56;;;;;;;18.35;6.50;;;;;;;;;;5013825;28;20120;-95
2021/04/24 05:56:22;;;;;;;16.15;6.97;;;;;;;;;;5013785;28;20021;-94
2021/04/24 05:58:50;;;;;;;13.30;6.00;;;;;;;;;;5013570;28;20098;-95
2021/04/24 06:01:15;;;;;;;15.25;5.68;;;;;;;;;;5013001;28;20485;-94
2021/04/24 06:03:41;;;;;;;15.48;6.78;;;;;;;;;;5030045;28;20045;-94
2021/04/24 06:06:06;;;;;;;16.23;7.05;;;;;;;;;;5033787;28;20033;-93
2021/04/24 06:08:31;;;;;;;15.88;6.95;;;;;;;;;;5033391;28;20045;-92
2021/04/24 06:10:57;;;;;;;16.33;6.82;;;;;;;;;;5032768;28;20063;-93
2021/04/24 06:13:23;;;;;;;18.38;6.70;;;;;;;;;;5033049;28;20045;-92
2021/04/24 06:15:49;;;;;;;26.80;7.25;;;;;;;;;;5016411;28;20476;-92
2021/04/24 06:18:16;;;;;;;23.70;8.13;;;;;;;;;;5032773;28;20040;-93
2021/04/24 06:20:41;;;;;;;13.90;6.57;;;;;;;;;;5032552;28;20034;-93
2021/04/24 06:23:06;;;;;;;14.65;6.30;;;;;;;;;;5016226;28;20052;-94
2021/04/24 06:25:32;;;;;;;19.15;6.32;;;;;;;;;;5016185;28;20045;-92
2021/04/24 06:27:57;;;;;;;14.80;6.63;;;;;;;;;;5015281;28;20033;-92
2021/04/24 06:30:23;;;;;;;17.63;7.47;;;;;;;;;;5032748;28;20057;-93
2021/04/24 06:32:50;;;;;;;18.10;8.18;;;;;;;;;;5032741;28;20042;-92
2021/04/24 06:35:17;;;;;;;15.98;7.07;;;;;;;;;;5032516;28;20036;-93
2021/04/24 06:37:43;;;;;;;16.48;6.72;;;;;;;;;;5015931;28;20056;-92
2021/04/24 06:40:10;;;;;;;23.85;8.85;;;;;;;;;;5031978;28;20447;-93
2021/04/24 06:42:37;;;;;;;15.77;7.43;;;;;;;;;;5016108;28;20025;-92
2021/04/24 06:45:04;;;;;;;18.05;7.13;;;;;;;;;;5032653;28;20034;-93
2021/04/24 06:47:30;;;;;;;12.68;6.40;;;;;;;;;;5016145;28;20040;-93
2021/04/24 06:49:55;;;;;;;15.30;6.72;;;;;;;;;;5016018;28;20037;-94
2021/04/24 06:52:21;;;;;;;29.80;9.18;;;;;;;;;;5032475;28;20049;-92
2021/04/24 06:54:46;;;;;;;17.33;8.68;;;;;;;;;;5032833;28;20108;-94
2021/04/24 06:57:12;;;;;;;14.40;7.43;;;;;;;;;;5016054;28;20040;-94
2021/04/24 06:59:37;;;;;;;21.50;6.95;;;;;;;;;;5015582;28;20030;-92
2021/04/24 07:02:03;;;;;;;14.02;7.43;;;;;;;;;;5032194;28;20109;-93
2021/04/24 07:04:29;;;;;;;14.73;6.97;;;;;;;;;;5015363;28;20120;-92
2021/04/24 07:06:54;;;;;;;12.13;6.70;;;;;;;;;;5015664;28;20079;-93
2021/04/24 07:09:20;;;;;;;15.63;7.05;;;;;;;;;;5028632;28;20492;-93
2021/04/24 07:11:45;;;;;;;15.20;6.82;;;;;;;;;;5032055;28;20032;-93
2021/04/24 07:14:10;;;;;;;13.77;6.25;;;;;;;;;;5031794;28;20489;-94
2021/04/24 07:16:36;;;;;;;14.05;7.20;;;;;;;;;;5028577;28;20084;-92
2021/04/24 07:19:02;;;;;;;12.88;6.57;;;;;;;;;;5016032;28;20044;-93
2021/04/24 07:21:27;;;;;;;13.05;6.18;;;;;;;;;;4999876;28;20037;-94
2021/04/24 07:23:53;;;;;;;16.92;7.15;;;;;;;;;;4999966;28;20401;-95
2021/04/24 07:26:20;;;;;;;13.48;6.68;;;;;;;;;;5016474;28;20034;-94
2021/04/24 07:28:45;;;;;;;15.40;7.70;;;;;;;;;;5016688;28;20124;-94
2021/04/24 07:31:13;;;;;;;12.70;6.57;;;;;;;;;;5033009;28;20092;-95
2021/04/24 07:33:39;;;;;;;12.00;6.28;;;;;;;;;;5000044;28;20034;-93
2021/04/24 07:36:04;;;;;;;14.68;6.13;;;;;;;;;;5000789;28;20406;-94
2021/04/24 07:38:30;;;;;;;13.10;5.82;;;;;;;;;;5032552;28;20396;-94
2021/04/24 07:40:55;;;;;;;9.75;5.63;;;;;;;;;;5000144;28;20130;-94
2021/04/24 07:43:23;;;;;;;8.98;5.68;;;;;;;;;;5000249;28;20034;-95
2021/04/24 07:45:49;;;;;;;13.25;6.00;;;;;;;;;;5025303;28;20556;-95
2021/04/24 07:48:14;;;;;;;10.75;5.72;;;;;;;;;;4999618;28;20065;-92
2021/04/24 07:50:40;;;;;;;9.90;4.97;;;;;;;;;;5016118;28;20466;-92
2021/04/24 07:53:05;;;;;;;16.45;5.50;;;;;;;;;;5012039;28;20385;-93
2021/04/24 07:55:31;;;;;;;12.20;5.30;;;;;;;;;;5035601;28;20037;-93
2021/04/24 07:57:56;;;;;;;13.60;5.38;;;;;;;;;;5035240;28;20029;-91
2021/04/24 08:00:25;;;;;;;11.88;5.70;;;;;;;;;;5034944;28;20034;-92
2021/04/24 08:02:50;;;;;;;7.78;4.78;;;;;;;;;;5035255;28;20038;-92
2021/04/24 08:05:17;;;;;;;10.57;5.50;;;;;;;;;;5035909;28;20045;-93
2021/04/24 08:07:46;;;;;;;8.73;4.80;;;;;;;;;;5035383;28;20061;-93
2021/04/24 08:10:12;;;;;;;7.00;4.18;;;;;;;;;;5019403;28;20523;-93
2021/04/24 08:12:38;;;;;;;8.18;4.25;;;;;;;;;;5035177;28;20057;-94
2021/04/24 08:15:08;;;;;;;6.68;4.30;;;;;;;;;;5035357;28;20507;-95
2021/04/24 08:17:34;;;;;;;7.50;4.30;;;;;;;;;;5034155;28;20516;-91
2021/04/24 08:20:03;;;;;;;8.65;4.40;;;;;;;;;;5034827;28;20484;-92
2021/04/24 08:22:28;;;;;;;6.55;4.50;;;;;;;;;;5018498;28;20033;-91
2021/04/24 08:24:54;;;;;;;13.10;5.20;;;;;;;;;;5018266;28;20064;-93
2021/04/24 08:27:19;;;;;;;8.27;4.45;;;;;;;;;;5018058;28;20492;-92
2021/04/24 08:29:45;;;;;;;9.20;4.18;;;;;;;;;;5034307;28;20037;-94
2021/04/24 08:32:10;;;;;;;9.07;4.10;;;;;;;;;;5033827;28;20041;-91
2021/04/24 08:34:35;;;;;;;7.35;4.50;;;;;;;;;;5035219;28;20053;-92
2021/04/24 08:37:01;;;;;;;8.80;3.80;;;;;;;;;;5034809;28;20136;-91
2021/04/24 08:39:27;;;;;;;6.68;4.63;;;;;;;;;;5018280;28;20124;-91
2021/04/24 08:41:52;;;;;;;7.57;4.07;;;;;;;;;;5034692;28;20042;-92
2021/04/24 08:44:18;;;;;;;7.22;3.75;;;;;;;;;;5033573;28;20562;-92
2021/04/24 08:46:50;;;;;;;6.45;3.88;;;;;;;;;;5034278;28;20080;-92
2021/04/24 08:49:20;;;;;;;7.97;4.22;;;;;;;;;;5034759;28;20033;-92
2021/04/24 08:51:46;;;;;;;7.03;4.40;;;;;;;;;;5034551;28;20056;-92
2021/04/24 08:54:11;;;;;;;7.82;3.72;;;;;;;;;;5034455;28;20464;-93
2021/04/24 08:56:36;;;;;;;8.48;3.67;;;;;;;;;;5050442;28;20037;-92
2021/04/24 08:59:02;;;;;;;6.45;3.50;;;;;;;;;;5034057;28;20087;-92
2021/04/24 09:01:27;;;;;;;4.88;2.95;;;;;;;;;;5033642;28;20029;-93
2021/04/24 09:03:53;;;;;;;6.40;3.33;;;;;;;;;;5032420;28;20128;-92
2021/04/24 09:06:23;;;;;;;3.65;2.70;;;;;;;;;;5017756;28;20110;-92
2021/04/24 09:09:02;;;;;;;9.18;3.72;;;;;;;;;;5034100;28;20124;-92
2021/04/24 09:11:28;;;;;;;7.93;3.50;;;;;;;;;;5033284;28;20061;-93
2021/04/24 09:14:05;;;;;;;8.00;2.90;;;;;;;;;;5017511;28;20037;-93
2021/04/24 09:16:31;;;;;;;5.80;2.85;;;;;;;;;;5033396;28;20083;-92
2021/04/24 09:18:57;;;;;;;6.40;3.13;;;;;;;;;;5033498;28;20041;-92
2021/04/24 09:21:24;;;;;;;6.32;2.97;;;;;;;;;;5034006;28;20041;-92
2021/04/24 09:23:50;;;;;;;5.50;2.40;;;;;;;;;;5033168;28;20108;-93
2021/04/24 09:26:17;;;;;;;5.47;3.35;;;;;;;;;;5033275;28;20029;-92
2021/04/24 09:28:45;;;;;;;6.22;2.65;;;;;;;;;;5034054;28;20073;-92
2021/04/24 09:31:11;;;;;;;5.85;2.95;;;;;;;;;;5033509;28;20076;-92
2021/04/24 09:33:37;;;;;;;4.13;2.55;;;;;;;;;;5033943;28;20078;-95
2021/04/24 09:36:03;;;;;;;6.78;2.45;;;;;;;;;;5033769;28;20431;-92
2021/04/24 09:38:34;;;;;;;6.00;2.45;;;;;;;;;;5017077;28;20396;-91
2021/04/24 09:41:33;;;;;;;5.45;2.42;;;;;;;;;;5013607;28;20079;-92
2021/04/24 09:44:08;;;;;;;3.63;1.90;;;;;;;;;;5011021;28;20499;-91
2021/04/24 09:46:45;;;;;;;2.83;2.00;;;;;;;;;;5017181;28;20041;-91
2021/04/24 09:49:28;;;;;;;4.97;2.40;;;;;;;;;;5033363;28;20073;-91
2021/04/24 09:51:59;;;;;;;9.55;2.38;;;;;;;;;;5017134;28;20036;-92
2021/04/24 09:54:34;;;;;;;6.78;2.17;;;;;;;;;;5016337;28;20040;-92
2021/04/24 09:57:05;;;;;;;4.70;2.00;;;;;;;;;;5032950;28;20065;-92
2021/04/24 09:59:32;;;;;;;4.55;2.30;;;;;;;;;;5033172;28;20112;-92
2021/04/24 10:02:07;;;;;;;3.28;1.95;;;;;;;;;;5032755;28;20562;-91
2021/04/24 10:04:33;;;;;;;6.13;2.30;;;;;;;;;;5032917;28;20064;-90
2021/04/24 10:06:58;;;;;;;5.90;2.67;;;;;;;;;;5033001;28;20067;-91
2021/04/24 10:09:30;;;;;;;10.20;2.42;;;;;;;;;;5032400;28;20366;-91
2021/04/24 10:12:11;;;;;;;6.75;1.85;;;;;;;;;;5032508;28;20500;-91
2021/04/24 10:14:45;;;;;;;4.93;2.10;;;;;;;;;;5032971;28;20052;-91
2021/04/24 10:17:20;;;;;;;5.47;2.00;;;;;;;;;;5032237;28;20040;-92
2021/04/24 10:19:47;;;;;;;4.30;2.15;;;;;;;;;;5032354;28;20033;-91
2021/04/24 10:22:15;;;;;;;3.55;1.80;;;;;;;;;;5032678;28;20037;-92
2021/04/24 10:24:41;;;;;;;2.47;1.60;;;;;;;;;;5032237;28;20046;-91
2021/04/24 10:27:08;;;;;;;3.13;1.85;;;;;;;;;;5016130;28;20082;-92
2021/04/24 10:29:34;;;;;;;3.45;2.05;;;;;;;;;;5032685;28;20030;-91
2021/04/24 10:31:59;;;;;;;4.20;1.63;;;;;;;;;;5032652;28;20124;-91
2021/04/24 10:34:25;;;;;;;2.72;1.90;;;;;;;;;;5016081;28;20077;-92
2021/04/24 10:36:54;;;;;;;6.07;2.50;;;;;;;;;;5032373;28;20037;-91
2021/04/24 10:39:27;;;;;;;2.70;1.80;;;;;;;;;;5014866;28;20043;-92
2021/04/24 10:42:15;;;;;;;7.38;2.50;;;;;;;;;;5032132;28;20048;-90
2021/04/24 10:45:01;;;;;;;4.35;1.90;;;;;;;;;;5032149;28;20037;-90
2021/04/24 10:50:05;;;;;;;5.22;1.83;;;;;;;;;;5033194;28;20037;-90
2021/04/24 10:52:31;;;;;;;3.92;2.63;;;;;;;;;;5031055;28;20029;-90
2021/04/24 10:55:17;;;;;;;5.72;2.25;;;;;;;;;;5031526;28;20504;-90
2021/04/24 10:57:53;;;;;;;12.55;8.80;;;;;;;;;;5031770;28;20029;-90
2021/04/24 11:00:48;;;;;;;9.55;2.92;;;;;;;;;;5031661;28;20124;-90
2021/04/24 11:03:35;;;;;;;6.45;2.90;;;;;;;;;;5031695;28;20080;-91
2021/04/24 11:06:21;;;;;;;3.47;2.13;;;;;;;;;;5031827;28;20546;-91
2021/04/24 11:08:49;;;;;;;4.15;2.08;;;;;;;;;;5031967;28;20499;-91
2021/04/24 11:11:19;;;;;;;10.68;2.45;;;;;;;;;;5030389;28;20049;-90
2021/04/24 11:13:54;;;;;;;5.10;2.33;;;;;;;;;;5031651;28;20033;-90
2021/04/24 11:16:21;;;;;;;5.82;2.60;;;;;;;;;;5031624;28;20037;-90
2021/04/24 11:18:49;;;;;;;7.45;3.55;;;;;;;;;;5031515;28;20124;-89
2021/04/24 11:21:17;;;;;;;10.45;3.10;;;;;;;;;;5015232;28;20133;-91
2021/04/24 11:23:47;;;;;;;5.65;2.45;;;;;;;;;;5031397;28;20033;-90
2021/04/24 11:26:15;;;;;;;6.78;3.70;;;;;;;;;;5031432;28;20068;-90
2021/04/24 11:28:56;;;;;;;9.10;2.97;;;;;;;;;;5032681;28;20044;-90
2021/04/24 11:31:52;;;;;;;8.00;2.60;;;;;;;;;;5031334;28;20042;-90
2021/04/24 11:34:23;;;;;;;5.18;2.78;;;;;;;;;;5031650;28;20095;-91
2021/04/24 11:37:11;;;;;;;5.65;2.30;;;;;;;;;;5031558;28;20033;-91
2021/04/24 11:39:37;;;;;;;4.93;2.55;;;;;;;;;;5031465;28;20048;-90
2021/04/24 11:42:27;;;;;;;5.75;2.65;;;;;;;;;;5020263;28;20037;-91
2021/04/24 11:44:52;;;;;;;6.93;3.17;;;;;;;;;;5042235;28;20050;-91
2021/04/24 11:47:40;;;;;;;6.18;2.97;;;;;;;;;;5027785;28;20045;-91
2021/04/24 11:50:16;;;;;;;8.82;3.42;;;;;;;;;;5011456;28;20125;-91
2021/04/24 11:52:53;;;;;;;5.70;2.80;;;;;;;;;;5044925;28;20042;-90
2021/04/24 11:55:20;;;;;;;4.32;3.35;;;;;;;;;;5028024;28;20046;-90
2021/04/24 11:57:46;;;;;;;8.55;2.58;;;;;;;;;;4995267;28;20080;-90
2021/04/24 12:00:14;;;;;;;5.38;2.92;;;;;;;;;;5044238;28;20084;-90
2021/04/24 12:02:46;;;;;;;9.70;2.90;;;;;;;;;;5011189;28;20034;-89
2021/04/24 12:05:12;;;;;;;7.53;2.88;;;;;;;;;;5046627;28;20038;-90
2021/04/24 12:07:47;;;;;;;10.20;2.90;;;;;;;;;;5047587;28;20048;-90
2021/04/24 12:10:13;;;;;;;8.00;2.40;;;;;;;;;;4998642;28;20485;-90
2021/04/24 12:12:41;;;;;;;7.38;2.80;;;;;;;;;;5014631;28;20037;-89
2021/04/24 12:15:10;;;;;;;7.75;3.00;;;;;;;;;;5030982;28;20042;-90
2021/04/24 12:17:50;;;;;;;4.18;2.42;;;;;;;;;;5031027;28;20036;-90
2021/04/24 12:20:27;;;;;;;4.05;2.50;;;;;;;;;;5014702;28;20046;-91
2021/04/24 12:22:54;;;;;;;6.68;3.90;;;;;;;;;;5031263;28;20036;-90
2021/04/24 12:25:22;;;;;;;5.85;2.97;;;;;;;;;;5030783;28;20056;-90
2021/04/24 12:27:49;;;;;;;7.07;2.60;;;;;;;;;;5014247;28;20046;-90
2021/04/24 12:30:26;;;;;;;5.15;2.90;;;;;;;;;;5030976;28;20034;-90
2021/04/24 12:33:01;;;;;;;6.63;2.47;;;;;;;;;;5014605;28;20038;-91
2021/04/24 12:35:30;;;;;;;6.32;3.90;;;;;;;;;;5031132;28;20041;-90
2021/04/24 12:38:14;;;;;;;6.68;3.00;;;;;;;;;;5030892;28;20046;-89
2021/04/24 12:40:45;;;;;;;5.07;2.75;;;;;;;;;;5014479;28;20544;-90
2021/04/24 12:43:19;;;;;;;4.05;2.65;;;;;;;;;;5038728;28;20044;-90
2021/04/24 12:45:50;;;;;;;3.92;2.95;;;;;;;;;;5034201;28;20476;-91
2021/04/24 12:48:21;;;;;;;4.95;2.85;;;;;;;;;;5017691;28;20047;-90
2021/04/24 12:50:50;;;;;;;6.53;2.75;;;;;;;;;;5033986;28;20489;-89
2021/04/24 12:53:38;;;;;;;8.32;3.05;;;;;;;;;;5033904;28;20029;-90
2021/04/24 12:56:11;;;;;;;5.22;2.70;;;;;;;;;;5033769;28;20084;-90
2021/04/24 12:58:44;;;;;;;13.90;3.25;;;;;;;;;;5032921;28;20531;-90
2021/04/24 13:01:15;;;;;;;5.80;3.17;;;;;;;;;;5033685;28;20033;-90
2021/04/24 13:03:43;;;;;;;7.93;3.47;;;;;;;;;;5032547;28;20473;-90
2021/04/24 13:06:19;;;;;;;5.95;3.50;;;;;;;;;;5033515;28;20037;-90
2021/04/24 13:09:06;;;;;;;10.98;3.30;;;;;;;;;;5049518;28;20084;-90
2021/04/24 13:11:44;;;;;;;6.97;2.97;;;;;;;;;;5033116;28;20044;-90
2021/04/24 13:14:12;;;;;;;6.00;3.40;;;;;;;;;;5016907;28;20111;-90
2021/04/24 13:16:37;;;;;;;6.80;3.53;;;;;;;;;;5032810;28;20029;-90
2021/04/24 13:19:03;;;;;;;6.40;2.90;;;;;;;;;;5034295;28;20091;-91
2021/04/24 13:21:31;;;;;;;7.53;3.15;;;;;;;;;;5015943;28;20542;-91
2021/04/24 13:24:14;;;;;;;7.25;3.05;;;;;;;;;;5032982;28;20061;-90
2021/04/24 13:26:58;;;;;;;6.88;3.60;;;;;;;;;;5032993;28;20037;-91
2021/04/24 13:29:26;;;;;;;8.00;3.55;;;;;;;;;;5033301;28;20048;-90
2021/04/24 13:31:58;;;;;;;8.65;3.70;;;;;;;;;;5032865;28;20477;-90
2021/04/24 13:34:23;;;;;;;6.38;3.50;;;;;;;;;;5033090;28;20072;-91
2021/04/24 13:36:53;;;;;;;6.85;3.00;;;;;;;;;;5032485;28;20017;-91
2021/04/24 13:39:18;;;;;;;7.45;3.92;;;;;;;;;;5032657;28;20083;-90
2021/04/24 13:41:43;;;;;;;7.13;3.20;;;;;;;;;;5033054;28;20122;-90
2021/04/24 13:44:11;;;;;;;6.78;3.33;;;;;;;;;;5032047;28;20110;-91
2021/04/24 13:46:50;;;;;;;6.78;3.33;;;;;;;;;;5016271;28;20034;-90
2021/04/24 13:49:18;;;;;;;5.90;3.50;;;;;;;;;;5033010;28;20029;-90
2021/04/24 13:51:44;;;;;;;5.63;3.53;;;;;;;;;;5032474;28;20070;-90
2021/04/24 13:54:10;;;;;;;7.78;3.40;;;;;;;;;;5032751;28;20033;-90
2021/04/24 13:56:35;;;;;;;7.07;3.15;;;;;;;;;;5032765;28;20036;-91
2021/04/24 13:59:06;;;;;;;6.15;3.75;;;;;;;;;;5032419;28;20520;-90
2021/04/24 14:01:32;;;;;;;8.82;3.97;;;;;;;;;;5032580;28;20041;-90
2021/04/24 14:03:57;;;;;;;5.47;3.65;;;;;;;;;;5030996;28;20031;-90
2021/04/24 14:06:22;;;;;;;7.70;3.45;;;;;;;;;;5032093;28;20033;-89
2021/04/24 14:08:48;;;;;;;5.75;3.78;;;;;;;;;;5014809;28;20400;-91
2021/04/24 14:11:13;;;;;;;6.25;3.30;;;;;;;;;;5032202;28;20045;-89
2021/04/24 14:13:39;;;;;;;6.50;3.13;;;;;;;;;;5032181;28;20029;-92
2021/04/24 14:16:06;;;;;;;8.25;3.88;;;;;;;;;;5032306;28;20365;-90
2021/04/24 14:18:32;;;;;;;7.43;3.30;;;;;;;;;;5032087;28;20395;-90
2021/04/24 14:20:57;;;;;;;5.53;3.17;;;;;;;;;;5032252;28;20120;-90
2021/04/24 14:23:22;;;;;;;6.63;3.60;;;;;;;;;;5032357;28;20091;-90
2021/04/24 14:25:48;;;;;;;6.75;3.78;;;;;;;;;;5032032;28;20120;-90
2021/04/24 14:28:13;;;;;;;7.72;3.70;;;;;;;;;;5022845;28;20037;-90
2021/04/24 14:30:38;;;;;;;6.35;3.35;;;;;;;;;;5028986;28;20501;-90
2021/04/24 14:33:04;;;;;;;10.20;3.67;;;;;;;;;;5028589;28;20508;-90
2021/04/24 14:35:29;;;;;;;9.77;3.83;;;;;;;;;;5028725;28;20041;-90
2021/04/24 14:37:54;;;;;;;7.20;3.17;;;;;;;;;;4995909;28;20038;-90
2021/04/24 14:40:21;;;;;;;4.68;3.42;;;;;;;;;;5022919;28;20046;-90
2021/04/24 14:42:46;;;;;;;10.10;3.80;;;;;;;;;;5013665;28;20434;-91
2021/04/24 14:45:12;;;;;;;8.57;3.72;;;;;;;;;;5018635;28;20030;-89